Overview Statistics Trail Chart Weather Telemetry Raw packets
 

This is the latest recevied weather packets stored in our database for station/object SV9TNF-56. If no packets are shown the sender has not sent any weather packets the latest 10 day(s).

<< 98 99 100 101 102 103 104 >>
Time Temp. Humidity Pressure Rain* Wind** Luminosity Snow
1787925384 29.44° C 50% 1017.6 hPa 0 mm 5.81 m/s, 218° - -
1787925083 28.89° C 52% 1017.6 hPa 0 mm 9.83 m/s, 162° - -
1787924784 28.89° C 52% 1017.6 hPa 0 mm 8.94 m/s, 138° - -
1787924483 28.33° C 52% 1017.6 hPa 0 mm 12.07 m/s, 187° - -
1787924183 28.33° C 53% 1018 hPa 0 mm 12.07 m/s, 130° - -
1787923883 28.89° C 50% 1018 hPa 0 mm 13.86 m/s, 71° - -
1787923583 29.44° C 48% 1018 hPa 0 mm 15.2 m/s, 96° - -
1787923283 29.44° C 46% 1018 hPa 0 mm 13.86 m/s, 100° - -
1787922983 30° C 45% 1018 hPa 0 mm 13.86 m/s, 84° - -
1787922683 30° C 46% 1018 hPa 0 mm 4.92 m/s, 204° - -
1787922383 30° C 47% 1018 hPa 0 mm 12.07 m/s, 76° - -
1787922083 30° C 46% 1018 hPa 0 mm 8.49 m/s, 108° - -
1787921783 30° C 45% 1018 hPa 0 mm 3.13 m/s, 150° - -
1787921482 30° C 45% 1018 hPa 0 mm 9.83 m/s, 138° - -
1787921182 30° C 46% 1018 hPa 0 mm 7.6 m/s, 186° - -
1787920882 30° C 46% 1018 hPa 0 mm 12.96 m/s, 78° - -
1787920582 30° C 47% 1018 hPa 0 mm 14.31 m/s, 117° - -
1787920282 30° C 46% 1018 hPa 0 mm 3.58 m/s, 294° - -
1787919982 30° C 47% 1018 hPa 0 mm 11.18 m/s, 60° - -
1787919682 30° C 46% 1018 hPa 0 mm 3.13 m/s, 254° - -
1787919382 30° C 46% 1018 hPa 0 mm 9.83 m/s, 224° - -
1787919082 30.56° C 46% 1018.3 hPa 0 mm 5.36 m/s, 180° - -
1787918781 30° C 46% 1018.3 hPa 0 mm 5.81 m/s, 199° - -
1787918482 30° C 46% 1018.3 hPa 0 mm 11.18 m/s, 156° - -
1787918181 30° C 48% 1018.3 hPa 0 mm 8.94 m/s, 138° - -

* Rain latest hour (hover to see other rain measurements)
** Current wind speed in m/s (hover to see current wind gust speed)